Destinations Eleftherios Venizelos International Airport

Eleftherios Venizelos International Airport (LGAV / ATH)

Flights to Eleftherios Venizelos International Airport

Flight number From ETE Dispatch
SPY-2274 EGFF Cardiff International Airport 03:45
SPY-2416 EGPH Edinburgh Airport 04:05

Flights from Eleftherios Venizelos International Airport

Flight number To ETE Dispatch
SPY-2275 EGFF Cardiff International Airport 03:45
SPY-2417 EGPH Edinburgh Airport 04:05
About

Eleftherios Venizelos International Airport facts

Eleftherios Venizelos International Airport is located in Athens at an elevation of 93.9 meters or 308 feet.

Currently, Speedy Airlines serves 4 flights to and from Eleftherios Venizelos International Airport.

Detailed airport info

Route map

Weather

Current weather

METAR

METAR

Metar data retrieved Sunday, 21 July 2024 at 20:25 UTC

LGAV 211950Z 23005KT 210V290 CAVOK 28/13 Q1008 NOSIG
Wind Temperature
5 kt 28c